Time;durP1;ratioP1;P1;durP2;ratioP2;P2;SDS_P1;SDS_P2;PMS_P1;PMS_P2;Temp;Humidity;BMP_temperature;BMP_pressure;BME280_temperature;BME280_humidity;BME280_pressure;Samples;Min_cycle;Max_cycle;Signal;HPM_P1;HPM_P2
2022/07/17 00:01:36;;;;;;;2.67;1.50;;;20.50;43.70;;;;;;5114779;28;20434;-73
2022/07/17 00:04:02;;;;;;;1.67;1.30;;;20.50;43.70;;;;;;5115653;28;20034;-74
2022/07/17 00:06:27;;;;;;;3.92;1.40;;;20.40;44.00;;;;;;5114616;28;20023;-72
2022/07/17 00:08:53;;;;;;;2.30;1.40;;;20.40;44.50;;;;;;5115992;28;20421;-76
2022/07/17 00:11:19;;;;;;;2.65;1.65;;;20.40;45.00;;;;;;5116026;28;20019;-74
2022/07/17 00:13:45;;;;;;;6.32;1.60;;;20.40;46.00;;;;;;5115901;28;20020;-76
2022/07/17 00:16:11;;;;;;;2.30;1.48;;;20.40;46.50;;;;;;5114577;28;20028;-73
2022/07/17 00:18:36;;;;;;;3.00;1.33;;;20.30;46.00;;;;;;5095360;28;20054;-76
2022/07/17 00:21:02;;;;;;;3.85;2.13;;;20.30;45.60;;;;;;5095128;28;20067;-72
2022/07/17 00:23:28;;;;;;;2.42;1.80;;;20.30;45.80;;;;;;5095239;28;20028;-74
2022/07/17 00:25:54;;;;;;;4.70;1.98;;;20.20;45.70;;;;;;5095145;28;20020;-75
2022/07/17 00:28:20;;;;;;;2.10;1.55;;;20.20;46.10;;;;;;5095051;28;20484;-74
2022/07/17 00:30:46;;;;;;;1.90;1.40;;;20.20;46.10;;;;;;5114524;28;20476;-76
2022/07/17 00:33:11;;;;;;;2.03;1.30;;;20.30;46.40;;;;;;5112553;28;20476;-72
2022/07/17 00:35:37;;;;;;;1.50;1.40;;;20.30;46.20;;;;;;5093760;28;20024;-75
2022/07/17 00:38:03;;;;;;;2.33;1.42;;;20.30;46.30;;;;;;5095000;28;20030;-75
2022/07/17 00:40:29;;;;;;;2.35;1.38;;;20.30;46.10;;;;;;5094926;28;20048;-76
2022/07/17 00:42:55;;;;;;;1.55;1.35;;;20.30;46.70;;;;;;5094941;28;20024;-76
2022/07/17 00:45:24;;;;;;;1.25;1.13;;;20.30;46.00;;;;;;5094720;28;20031;-71
2022/07/17 00:47:54;;;;;;;2.28;1.50;;;20.30;46.00;;;;;;5094824;28;20037;-74
2022/07/17 00:50:23;;;;;;;2.58;1.50;;;20.30;46.00;;;;;;5094687;28;20047;-76
2022/07/17 00:52:48;;;;;;;3.15;1.25;;;20.20;45.60;;;;;;5093363;28;20020;-74
2022/07/17 00:55:15;;;;;;;3.20;1.42;;;20.20;45.70;;;;;;5094661;28;20061;-73
2022/07/17 00:57:45;;;;;;;2.47;1.30;;;20.10;45.70;;;;;;5094545;28;20577;-71
2022/07/17 01:00:11;;;;;;;2.55;1.23;;;20.10;46.00;;;;;;5095207;27;20040;-73
2022/07/17 01:02:38;;;;;;;3.47;1.30;;;20.10;46.10;;;;;;5114708;28;20027;-76
2022/07/17 01:05:05;;;;;;;2.47;1.75;;;20.00;46.10;;;;;;5114498;28;20024;-73
2022/07/17 01:07:30;;;;;;;2.53;1.38;;;20.00;46.20;;;;;;5114571;28;20051;-71
2022/07/17 01:09:56;;;;;;;4.55;1.50;;;19.90;46.30;;;;;;5114468;28;20473;-74
2022/07/17 01:12:23;;;;;;;2.35;1.55;;;19.90;46.40;;;;;;5114490;28;20094;-72
2022/07/17 01:14:50;;;;;;;2.33;1.23;;;19.80;46.60;;;;;;5114211;28;20022;-73
2022/07/17 01:17:17;;;;;;;2.08;1.30;;;19.80;46.60;;;;;;5093251;28;20051;-72
2022/07/17 01:19:43;;;;;;;3.65;1.50;;;19.70;46.80;;;;;;5093790;28;20481;-73
2022/07/17 01:22:09;;;;;;;5.45;1.40;;;19.70;46.80;;;;;;5093996;28;20081;-77
2022/07/17 01:24:39;;;;;;;1.95;1.55;;;19.70;46.90;;;;;;5093833;28;20033;-72
2022/07/17 01:27:05;;;;;;;3.05;1.42;;;19.60;47.30;;;;;;5093792;28;20465;-72
2022/07/17 01:29:31;;;;;;;3.00;1.30;;;19.60;47.10;;;;;;5092810;28;20036;-76
2022/07/17 01:31:57;;;;;;;2.25;1.52;;;19.50;47.10;;;;;;5093777;28;20024;-74
2022/07/17 01:34:22;;;;;;;2.45;1.45;;;19.50;47.20;;;;;;5108348;28;20496;-74
2022/07/17 01:36:48;;;;;;;2.72;1.38;;;19.40;47.50;;;;;;5112551;28;20031;-71
2022/07/17 01:39:14;;;;;;;1.85;1.50;;;19.40;47.40;;;;;;5112927;28;20030;-76
2022/07/17 01:41:40;;;;;;;1.50;1.25;;;19.40;47.50;;;;;;5112496;28;20034;-74
2022/07/17 01:44:07;;;;;;;2.00;1.27;;;19.30;47.70;;;;;;5112742;28;20022;-75
2022/07/17 01:46:33;;;;;;;2.55;1.40;;;19.30;48.00;;;;;;5112573;28;20016;-75
2022/07/17 01:49:00;;;;;;;1.52;1.38;;;19.20;47.70;;;;;;5112662;28;20084;-73
2022/07/17 01:51:27;;;;;;;3.53;1.23;;;19.20;47.70;;;;;;5110129;28;20035;-73
2022/07/17 01:53:53;;;;;;;1.58;1.27;;;19.20;47.80;;;;;;5112490;28;20159;-75
2022/07/17 01:56:18;;;;;;;3.20;1.42;;;19.20;47.90;;;;;;5112413;28;20102;-72
2022/07/17 01:58:45;;;;;;;1.70;1.30;;;19.10;47.80;;;;;;5107749;28;20030;-76
2022/07/17 02:01:10;;;;;;;1.40;1.30;;;19.10;48.20;;;;;;5113227;28;20084;-75
2022/07/17 02:03:36;;;;;;;2.40;1.38;;;19.10;48.30;;;;;;5112349;28;20027;-74
2022/07/17 02:06:02;;;;;;;2.47;1.50;;;19.00;48.40;;;;;;5113400;28;20034;-74
2022/07/17 02:08:27;;;;;;;2.10;1.52;;;19.00;48.40;;;;;;5113469;28;20046;-77
2022/07/17 02:10:53;;;;;;;3.05;1.48;;;19.00;48.60;;;;;;5113508;28;20024;-71
2022/07/17 02:13:19;;;;;;;1.50;1.23;;;18.90;48.60;;;;;;5113498;28;20023;-72
2022/07/17 02:15:45;;;;;;;1.92;1.35;;;18.90;48.90;;;;;;5093471;28;20028;-74
2022/07/17 02:18:11;;;;;;;1.25;1.15;;;18.90;48.90;;;;;;5092079;28;20415;-74
2022/07/17 02:20:37;;;;;;;3.00;1.60;;;18.80;48.90;;;;;;5092885;28;20146;-73
2022/07/17 02:23:02;;;;;;;1.83;1.38;;;18.80;48.90;;;;;;5093057;28;20052;-72
2022/07/17 02:25:28;;;;;;;3.40;1.60;;;18.70;49.30;;;;;;5092903;28;20032;-73
2022/07/17 02:27:54;;;;;;;2.00;1.48;;;18.70;49.10;;;;;;5096190;28;20027;-72
2022/07/17 02:30:20;;;;;;;4.20;1.55;;;18.70;49.40;;;;;;5098573;28;20039;-74
2022/07/17 02:32:46;;;;;;;5.65;2.03;;;18.60;49.40;;;;;;5099666;28;20024;-70
2022/07/17 02:35:13;;;;;;;2.10;1.45;;;18.60;49.60;;;;;;5099720;28;20496;-72
2022/07/17 02:37:42;;;;;;;2.08;1.42;;;18.60;49.50;;;;;;5099582;28;20020;-72
2022/07/17 02:40:08;;;;;;;5.53;1.40;;;18.50;49.60;;;;;;5099593;28;20024;-73
2022/07/17 02:42:34;;;;;;;2.72;1.40;;;18.50;49.70;;;;;;5099632;28;20051;-73
2022/07/17 02:44:59;;;;;;;1.20;1.10;;;18.50;50.10;;;;;;5099504;28;20059;-73
2022/07/17 02:47:30;;;;;;;1.42;1.23;;;18.50;49.70;;;;;;5099527;28;20020;-75
2022/07/17 02:49:57;;;;;;;2.22;1.58;;;18.40;49.70;;;;;;5099426;28;20024;-75
2022/07/17 02:52:23;;;;;;;1.83;1.30;;;18.40;49.70;;;;;;5099669;28;20491;-75
2022/07/17 02:54:50;;;;;;;2.42;1.45;;;18.40;49.80;;;;;;5099533;28;20052;-76
2022/07/17 02:57:16;;;;;;;1.88;1.50;;;18.30;49.80;;;;;;5099586;28;20063;-71
2022/07/17 02:59:42;;;;;;;1.60;1.38;;;18.30;50.70;;;;;;5099328;28;20497;-75
2022/07/17 03:02:08;;;;;;;2.13;1.58;;;18.30;50.20;;;;;;5114065;27;20031;-76
2022/07/17 03:04:33;;;;;;;1.45;1.25;;;18.20;50.10;;;;;;5119632;28;20350;-74
2022/07/17 03:06:59;;;;;;;1.80;1.30;;;18.20;50.50;;;;;;5119513;27;20052;-72
2022/07/17 03:09:25;;;;;;;1.50;1.30;;;18.20;50.60;;;;;;5119732;27;20473;-74
2022/07/17 03:11:51;;;;;;;3.65;1.55;;;18.20;50.60;;;;;;5119857;27;20478;-75
2022/07/17 03:14:17;;;;;;;2.10;1.60;;;18.10;50.50;;;;;;5100313;27;20051;-71
2022/07/17 03:16:43;;;;;;;3.72;1.60;;;18.10;50.60;;;;;;5099297;28;20020;-74
2022/07/17 03:19:09;;;;;;;2.25;1.40;;;18.10;50.70;;;;;;5099284;28;20541;-72
2022/07/17 03:21:34;;;;;;;1.65;1.40;;;18.10;50.80;;;;;;5099076;28;20044;-75
2022/07/17 03:24:04;;;;;;;2.38;1.33;;;18.10;50.70;;;;;;5099271;28;20028;-72
2022/07/17 03:26:29;;;;;;;2.30;1.20;;;18.00;50.90;;;;;;5097815;28;20089;-72
2022/07/17 03:28:55;;;;;;;1.65;1.40;;;18.00;50.70;;;;;;5101538;27;20039;-75
2022/07/17 03:31:21;;;;;;;1.45;1.02;;;18.00;50.50;;;;;;5119506;28;20043;-77
2022/07/17 03:33:46;;;;;;;1.98;1.20;;;18.00;50.70;;;;;;5118044;28;20023;-74
2022/07/17 03:36:12;;;;;;;4.00;1.70;;;18.00;50.80;;;;;;5119510;28;20027;-75
2022/07/17 03:38:38;;;;;;;1.55;1.27;;;18.00;50.90;;;;;;5117053;28;20076;-73
2022/07/17 03:41:04;;;;;;;2.72;1.60;;;18.00;50.90;;;;;;5115920;28;20469;-73
2022/07/17 03:43:30;;;;;;;2.67;1.40;;;17.90;51.00;;;;;;5114957;28;20023;-76
2022/07/17 03:45:55;;;;;;;1.85;1.25;;;17.90;51.10;;;;;;5115955;28;20020;-76
2022/07/17 03:48:21;;;;;;;2.50;1.33;;;18.00;51.20;;;;;;5115926;28;20032;-75
2022/07/17 03:50:47;;;;;;;1.70;1.38;;;18.00;51.40;;;;;;5115914;28;20060;-74
2022/07/17 03:53:13;;;;;;;4.25;1.30;;;18.00;51.50;;;;;;5116030;28;20020;-74
2022/07/17 03:55:38;;;;;;;2.58;1.40;;;18.00;51.70;;;;;;5115985;28;20160;-76
2022/07/17 03:58:04;;;;;;;1.45;1.30;;;18.00;51.70;;;;;;5115992;28;20028;-72
2022/07/17 04:00:30;;;;;;;1.90;1.30;;;18.00;51.80;;;;;;5100315;28;20051;-73
2022/07/17 04:02:56;;;;;;;3.17;1.60;;;18.00;51.90;;;;;;5095298;28;20414;-72
2022/07/17 04:05:21;;;;;;;1.63;1.35;;;18.00;52.30;;;;;;5094119;28;20035;-72
2022/07/17 04:07:47;;;;;;;1.70;1.55;;;18.10;52.30;;;;;;5094072;28;20376;-73
2022/07/17 04:10:14;;;;;;;3.70;1.55;;;18.10;52.80;;;;;;5094149;28;20039;-71
2022/07/17 04:12:40;;;;;;;2.20;1.73;;;18.10;53.30;;;;;;5095171;28;20020;-74
2022/07/17 04:15:07;;;;;;;2.85;1.60;;;18.20;53.60;;;;;;5095209;28;20069;-73
2022/07/17 04:17:33;;;;;;;2.33;1.50;;;18.20;53.20;;;;;;5095072;28;20027;-71
2022/07/17 04:19:59;;;;;;;6.05;1.60;;;18.30;53.50;;;;;;5094938;28;20389;-75
2022/07/17 04:22:24;;;;;;;7.60;1.60;;;18.30;53.70;;;;;;5093867;28;20027;-74
2022/07/17 04:24:51;;;;;;;2.30;1.35;;;18.30;53.60;;;;;;5095068;28;20016;-75
2022/07/17 04:27:17;;;;;;;1.27;1.17;;;18.40;53.30;;;;;;5095103;28;20020;-76
2022/07/17 04:29:43;;;;;;;1.58;1.40;;;18.40;53.20;;;;;;5093852;28;20100;-73
2022/07/17 04:32:09;;;;;;;2.03;1.38;;;18.50;53.30;;;;;;5094931;28;20050;-74
2022/07/17 04:34:35;;;;;;;5.80;1.50;;;18.50;53.20;;;;;;5094946;28;20027;-75
2022/07/17 04:37:02;;;;;;;7.30;1.52;;;18.60;53.20;;;;;;5094860;28;20024;-74
2022/07/17 04:39:28;;;;;;;5.97;1.60;;;18.60;53.30;;;;;;5094858;28;20047;-75
2022/07/17 04:41:54;;;;;;;7.03;1.70;;;18.70;53.20;;;;;;5094698;28;20034;-74
2022/07/17 04:44:20;;;;;;;2.95;1.40;;;18.80;53.20;;;;;;5094769;28;20110;-74
2022/07/17 04:46:46;;;;;;;5.22;1.80;;;18.80;53.20;;;;;;5094611;28;20016;-73
2022/07/17 04:49:13;;;;;;;3.53;1.77;;;18.90;53.40;;;;;;5094636;28;20089;-75
2022/07/17 04:51:39;;;;;;;5.20;1.73;;;18.90;53.30;;;;;;5093458;28;20108;-74
2022/07/17 04:54:05;;;;;;;4.47;1.38;;;19.00;53.30;;;;;;5093275;28;20044;-74
2022/07/17 04:56:31;;;;;;;2.28;1.27;;;19.00;53.20;;;;;;5094531;28;20043;-72
2022/07/17 04:58:56;;;;;;;3.35;1.63;;;19.10;53.00;;;;;;5093063;28;20477;-76
2022/07/17 05:01:22;;;;;;;2.88;1.58;;;19.10;52.90;;;;;;5099382;28;20047;-74
2022/07/17 05:03:48;;;;;;;3.80;1.38;;;19.20;52.90;;;;;;5114774;28;20027;-75
2022/07/17 05:06:14;;;;;;;4.45;1.60;;;19.20;52.90;;;;;;5113301;28;20020;-75
2022/07/17 05:08:40;;;;;;;8.95;2.50;;;19.30;52.80;;;;;;5114622;28;20030;-73
2022/07/17 05:11:05;;;;;;;2.25;1.48;;;19.40;52.70;;;;;;5098476;28;20378;-75
2022/07/17 05:13:31;;;;;;;6.80;1.70;;;19.40;52.60;;;;;;5094029;28;20027;-75
2022/07/17 05:15:57;;;;;;;2.83;1.60;;;19.50;52.60;;;;;;5094086;28;20028;-74
2022/07/17 05:18:23;;;;;;;3.25;1.42;;;19.50;52.50;;;;;;5094073;28;20047;-72
2022/07/17 05:20:49;;;;;;;4.47;1.70;;;19.60;52.50;;;;;;5093758;28;20040;-74
2022/07/17 05:23:14;;;;;;;5.88;1.70;;;19.60;52.40;;;;;;5094009;28;20445;-75
2022/07/17 05:25:40;;;;;;;3.63;1.42;;;19.70;52.40;;;;;;5093926;28;20427;-73
2022/07/17 05:28:06;;;;;;;2.38;1.50;;;19.80;52.10;;;;;;5093731;28;20091;-73
2022/07/17 05:30:32;;;;;;;3.00;1.42;;;19.80;52.00;;;;;;5097843;28;20028;-74
2022/07/17 05:32:57;;;;;;;2.67;1.70;;;19.80;52.00;;;;;;5111627;28;20036;-71
2022/07/17 05:35:23;;;;;;;4.13;1.45;;;19.90;51.90;;;;;;5113175;28;20027;-73
2022/07/17 05:37:49;;;;;;;2.80;1.50;;;20.00;51.80;;;;;;5113122;28;20503;-72
2022/07/17 05:40:15;;;;;;;2.67;1.75;;;20.00;51.70;;;;;;5113313;28;20023;-73
2022/07/17 05:42:40;;;;;;;2.33;1.60;;;20.10;51.50;;;;;;5113154;28;20028;-71
2022/07/17 05:45:07;;;;;;;4.78;1.95;;;20.20;51.40;;;;;;5113150;28;20492;-71
2022/07/17 05:47:33;;;;;;;2.78;1.77;;;20.30;51.40;;;;;;5113143;28;20020;-72
2022/07/17 05:49:58;;;;;;;11.25;2.00;;;20.40;51.40;;;;;;5113053;28;20027;-74
2022/07/17 05:52:24;;;;;;;3.80;1.80;;;20.40;51.20;;;;;;5112697;28;20494;-72
2022/07/17 05:54:50;;;;;;;10.15;1.92;;;20.50;51.00;;;;;;5111555;28;20023;-72
2022/07/17 05:57:16;;;;;;;2.55;1.70;;;20.60;50.50;;;;;;5112914;28;20027;-74
2022/07/17 05:59:42;;;;;;;3.10;1.83;;;20.70;50.50;;;;;;5110728;28;20031;-74
2022/07/17 06:02:07;;;;;;;8.65;1.90;;;20.70;50.30;;;;;;5111959;28;20434;-70
2022/07/17 06:04:33;;;;;;;6.88;2.30;;;20.80;50.10;;;;;;5112687;28;20201;-74
2022/07/17 06:06:59;;;;;;;6.78;2.58;;;20.90;49.60;;;;;;5112637;28;20023;-75
2022/07/17 06:09:25;;;;;;;3.30;2.03;;;21.00;49.10;;;;;;5098560;28;20491;-74
2022/07/17 06:11:51;;;;;;;4.38;2.08;;;21.00;49.30;;;;;;5092217;28;20040;-75
2022/07/17 06:14:17;;;;;;;4.10;1.50;;;21.10;48.40;;;;;;5092174;28;20028;-75
2022/07/17 06:16:43;;;;;;;2.75;1.60;;;21.20;48.40;;;;;;5092062;28;20028;-74
2022/07/17 06:19:09;;;;;;;8.70;2.30;;;21.30;47.60;;;;;;5092206;28;20533;-74
2022/07/17 06:21:34;;;;;;;7.90;1.50;;;21.40;48.00;;;;;;5091983;28;20044;-73
2022/07/17 06:24:00;;;;;;;2.53;1.30;;;21.50;46.30;;;;;;5092094;28;20031;-74
2022/07/17 06:26:26;;;;;;;4.13;1.70;;;21.60;45.90;;;;;;5091760;28;20384;-73
2022/07/17 06:28:52;;;;;;;3.03;1.45;;;21.60;45.20;;;;;;5091911;28;20054;-74
2022/07/17 06:31:18;;;;;;;4.18;1.35;;;21.70;44.30;;;;;;5092054;28;20024;-73
2022/07/17 06:33:43;;;;;;;4.10;1.17;;;21.80;43.90;;;;;;5092336;28;20032;-74
2022/07/17 06:36:09;;;;;;;2.05;1.13;;;21.90;44.20;;;;;;5090622;28;20476;-74
2022/07/17 06:38:35;;;;;;;1.85;1.08;;;22.00;43.70;;;;;;5092091;28;20059;-75
2022/07/17 06:41:02;;;;;;;4.20;1.63;;;22.10;43.60;;;;;;5092069;28;20500;-73
2022/07/17 06:43:28;;;;;;;2.28;1.55;;;22.20;43.40;;;;;;5091839;28;20047;-75
2022/07/17 06:45:54;;;;;;;2.17;1.48;;;22.30;43.30;;;;;;5091944;28;20024;-74
2022/07/17 06:48:21;;;;;;;7.13;1.50;;;22.40;43.30;;;;;;5091793;28;20030;-71
2022/07/17 06:50:47;;;;;;;2.45;1.48;;;22.40;43.00;;;;;;5091817;28;20020;-72
2022/07/17 06:53:13;;;;;;;6.38;1.58;;;22.50;42.60;;;;;;5091872;28;20020;-75
2022/07/17 06:55:39;;;;;;;5.20;1.10;;;22.60;41.80;;;;;;5091924;28;20078;-74
2022/07/17 06:58:05;;;;;;;4.28;1.70;;;22.70;42.10;;;;;;5091772;28;20071;-75
2022/07/17 07:00:31;;;;;;;5.55;0.95;;;22.80;41.90;;;;;;5090824;28;20480;-75
2022/07/17 07:02:57;;;;;;;2.22;1.35;;;22.80;41.30;;;;;;5106745;28;20032;-73
2022/07/17 07:05:23;;;;;;;1.73;1.20;;;22.90;41.60;;;;;;5110858;28;20491;-74
2022/07/17 07:07:48;;;;;;;1.60;1.02;;;22.90;40.60;;;;;;5098792;28;20055;-75
2022/07/17 07:10:14;;;;;;;3.47;2.10;;;23.00;40.50;;;;;;5091720;28;20020;-74
2022/07/17 07:12:40;;;;;;;4.32;1.27;;;23.00;40.70;;;;;;5091802;28;20020;-73
2022/07/17 07:15:07;;;;;;;4.10;1.40;;;23.10;40.40;;;;;;5093659;28;20354;-72
2022/07/17 07:17:34;;;;;;;4.30;1.33;;;23.20;40.40;;;;;;5095606;28;20455;-75
2022/07/17 07:20:01;;;;;;;5.68;1.30;;;23.20;39.90;;;;;;5095403;28;20443;-74
2022/07/17 07:22:27;;;;;;;2.22;1.25;;;23.30;40.00;;;;;;5095497;28;20012;-75
2022/07/17 07:24:53;;;;;;;5.45;1.00;;;23.30;39.60;;;;;;5095543;28;20028;-75
2022/07/17 07:27:18;;;;;;;3.33;1.25;;;23.40;39.40;;;;;;5095298;28;20032;-73
2022/07/17 07:29:44;;;;;;;5.25;1.55;;;23.40;39.10;;;;;;5095164;28;20028;-75
2022/07/17 07:32:10;;;;;;;3.17;1.30;;;23.50;38.90;;;;;;5093939;28;20115;-73
2022/07/17 07:34:36;;;;;;;2.17;0.93;;;23.50;38.80;;;;;;5095278;28;20028;-72
2022/07/17 07:37:02;;;;;;;2.60;1.23;;;23.60;38.50;;;;;;5095322;28;20489;-73
2022/07/17 07:39:27;;;;;;;3.45;1.27;;;23.60;38.70;;;;;;5093787;28;20617;-74
2022/07/17 07:41:53;;;;;;;2.40;1.27;;;23.60;38.30;;;;;;5095254;28;20115;-73
2022/07/17 07:44:19;;;;;;;1.98;1.02;;;23.70;38.20;;;;;;5095031;28;20030;-73
2022/07/17 07:46:45;;;;;;;1.77;1.15;;;23.70;38.20;;;;;;5095060;28;20031;-75
2022/07/17 07:49:10;;;;;;;1.45;1.10;;;23.70;37.90;;;;;;5093660;28;20079;-73
2022/07/17 07:51:36;;;;;;;3.08;1.27;;;23.80;39.20;;;;;;5095058;28;20024;-75
2022/07/17 07:54:02;;;;;;;2.97;1.40;;;23.80;38.10;;;;;;5093612;28;20034;-74
2022/07/17 07:56:28;;;;;;;2.20;1.38;;;23.90;37.60;;;;;;5094986;28;20028;-74
2022/07/17 07:58:54;;;;;;;2.72;1.23;;;23.90;37.50;;;;;;5095245;28;20425;-75
2022/07/17 08:01:20;;;;;;;2.97;1.23;;;24.00;37.40;;;;;;5112628;28;20058;-74
2022/07/17 08:03:45;;;;;;;2.30;1.25;;;24.00;37.80;;;;;;5115252;28;20027;-72
2022/07/17 08:06:11;;;;;;;1.83;1.33;;;24.10;37.70;;;;;;5104542;28;20032;-72
2022/07/17 08:08:37;;;;;;;2.63;1.27;;;24.10;37.50;;;;;;5094673;28;20028;-74
2022/07/17 08:11:03;;;;;;;1.70;1.10;;;24.20;37.30;;;;;;5094564;28;20016;-73
2022/07/17 08:13:28;;;;;;;2.13;1.15;;;24.20;37.50;;;;;;5093317;28;20020;-73
2022/07/17 08:15:54;;;;;;;4.25;1.60;;;24.30;37.60;;;;;;5093115;28;20507;-75
2022/07/17 08:18:20;;;;;;;3.25;1.10;;;24.30;37.20;;;;;;5093150;28;20483;-74
2022/07/17 08:20:46;;;;;;;2.30;1.35;;;24.30;37.20;;;;;;5094160;28;20040;-74
2022/07/17 08:23:11;;;;;;;3.13;1.20;;;24.40;36.50;;;;;;5094355;28;20072;-73
2022/07/17 08:25:37;;;;;;;1.38;1.27;;;24.40;36.50;;;;;;5093808;28;20111;-73
2022/07/17 08:28:04;;;;;;;6.57;1.50;;;24.40;36.40;;;;;;5094155;28;20031;-76
2022/07/17 08:30:34;;;;;;;1.98;1.30;;;24.50;36.10;;;;;;5094185;28;20050;-72
2022/07/17 08:33:01;;;;;;;1.73;1.15;;;24.50;36.50;;;;;;5093036;28;20030;-73
2022/07/17 08:35:27;;;;;;;2.13;1.10;;;24.60;36.80;;;;;;5092790;28;20032;-74
2022/07/17 08:37:53;;;;;;;2.30;1.40;;;24.60;37.10;;;;;;5097660;28;20031;-74
2022/07/17 08:40:28;;;;;;;2.58;1.27;;;24.70;36.60;;;;;;5114293;28;20031;-75
2022/07/17 08:42:56;;;;;;;4.45;1.50;;;24.70;36.50;;;;;;5114485;28;20114;-73
2022/07/17 08:45:22;;;;;;;6.32;1.73;;;24.80;35.70;;;;;;5114170;28;20028;-71
2022/07/17 08:47:50;;;;;;;2.15;1.67;;;24.80;35.50;;;;;;5113891;28;20035;-73
2022/07/17 08:50:17;;;;;;;3.55;2.83;;;24.90;36.10;;;;;;5113736;28;20123;-74
2022/07/17 08:52:43;;;;;;;3.63;2.10;;;25.00;36.40;;;;;;5113690;28;20345;-77
2022/07/17 08:55:13;;;;;;;1.73;1.10;;;25.10;36.40;;;;;;5113693;28;20069;-72
2022/07/17 08:57:44;;;;;;;1.48;0.85;;;25.10;35.70;;;;;;5113746;28;20099;-73
2022/07/17 09:00:12;;;;;;;1.60;1.25;;;25.20;35.60;;;;;;5109007;28;20458;-74
2022/07/17 09:02:39;;;;;;;2.95;1.48;;;25.30;35.80;;;;;;5113665;28;20016;-74
2022/07/17 09:05:07;;;;;;;2.47;1.40;;;25.30;35.10;;;;;;5109616;28;20016;-76
2022/07/17 09:07:33;;;;;;;1.42;1.08;;;25.30;34.70;;;;;;5118957;27;20015;-76
2022/07/17 09:09:59;;;;;;;1.83;1.10;;;25.30;35.30;;;;;;5129002;27;20529;-74
2022/07/17 09:12:30;;;;;;;1.42;1.17;;;25.40;35.30;;;;;;5130512;27;20095;-70
2022/07/17 09:14:56;;;;;;;3.28;1.40;;;25.50;35.50;;;;;;5126559;27;20023;-72
2022/07/17 09:17:26;;;;;;;1.40;1.17;;;25.60;35.30;;;;;;5128458;27;20075;-72
2022/07/17 09:19:52;;;;;;;5.85;2.65;;;25.70;34.80;;;;;;5126538;27;20048;-73
2022/07/17 09:22:22;;;;;;;2.10;1.40;;;25.90;34.70;;;;;;5124305;27;20027;-72
2022/07/17 09:24:56;;;;;;;3.90;1.20;;;26.00;34.20;;;;;;5126293;27;20020;-76
2022/07/17 09:27:24;;;;;;;;;;;26.00;33.90;;;;;;5127575;27;20412;-74
2022/07/17 09:30:04;;;;;;;3.50;1.75;;;26.10;35.10;;;;;;5121029;27;19972;-74
2022/07/17 09:32:34;;;;;;;2.72;1.88;;;26.20;34.20;;;;;;5120205;27;20019;-75
2022/07/17 09:35:01;;;;;;;5.35;2.15;;;26.30;34.00;;;;;;5122450;27;20016;-75
2022/07/17 09:37:29;;;;;;;2.38;1.40;;;26.40;33.90;;;;;;5120184;27;20072;-75
2022/07/17 09:39:56;;;;;;;2.58;1.30;;;26.50;33.20;;;;;;5122160;27;20026;-70
2022/07/17 09:42:32;;;;;;;3.53;2.13;;;26.60;33.50;;;;;;5124064;27;20468;-73
2022/07/17 09:45:06;;;;;;;5.32;1.60;;;26.80;32.80;;;;;;5122006;27;20027;-71
2022/07/17 09:47:33;;;;;;;4.68;1.80;;;26.80;32.80;;;;;;5119637;27;20447;-73
2022/07/17 09:50:01;;;;;;;3.15;1.67;;;26.90;32.60;;;;;;5120630;27;20020;-71
2022/07/17 09:52:32;;;;;;;4.65;1.67;;;27.00;32.90;;;;;;5123342;27;20012;-71
2022/07/17 09:54:59;;;;;;;2.53;1.70;;;27.00;32.40;;;;;;5121378;27;20016;-72
2022/07/17 09:57:31;;;;;;;3.22;1.88;;;27.10;32.30;;;;;;5119759;27;20034;-71
2022/07/17 10:00:15;;;;;;;7.07;1.98;;;27.20;31.80;;;;;;5101928;28;20112;-73
2022/07/17 10:02:44;;;;;;;1.70;1.23;;;27.20;31.50;;;;;;5100422;28;20146;-74
2022/07/17 10:05:15;;;;;;;3.28;2.35;;;27.20;31.90;;;;;;5112461;27;20114;-72
2022/07/17 10:07:45;;;;;;;4.20;2.00;;;27.20;32.00;;;;;;5122517;27;20020;-74
2022/07/17 10:10:13;;;;;;;3.33;1.92;;;27.20;30.90;;;;;;5124164;27;20015;-71
2022/07/17 10:12:41;;;;;;;2.10;1.65;;;27.20;31.20;;;;;;5121575;27;20480;-73
2022/07/17 10:15:08;;;;;;;1.90;1.48;;;27.30;31.20;;;;;;5122624;27;20020;-71
2022/07/17 10:17:34;;;;;;;1.95;1.17;;;27.20;30.60;;;;;;5123376;27;20018;-74
2022/07/17 10:20:00;;;;;;;3.47;1.40;;;27.20;30.40;;;;;;5117264;27;20059;-71
2022/07/17 10:22:26;;;;;;;2.13;1.60;;;27.30;31.40;;;;;;5122497;27;20443;-72
2022/07/17 10:24:56;;;;;;;2.25;1.80;;;27.20;31.30;;;;;;5122952;27;20027;-74
2022/07/17 10:27:24;;;;;;;2.58;1.60;;;27.20;30.00;;;;;;5118609;28;20038;-73
2022/07/17 10:30:04;;;;;;;2.20;1.50;;;27.30;30.20;;;;;;5118161;28;20053;-71
2022/07/17 10:32:31;;;;;;;12.73;1.35;;;27.30;30.40;;;;;;5121414;28;20026;-74
2022/07/17 10:35:04;;;;;;;2.80;1.60;;;27.30;29.70;;;;;;5120379;28;20114;-74
2022/07/17 10:37:40;;;;;;;3.38;1.92;;;27.20;29.30;;;;;;5118005;28;20456;-73
2022/07/17 10:40:11;;;;;;;3.10;1.60;;;27.30;29.80;;;;;;5112185;28;20020;-71
2022/07/17 10:42:39;;;;;;;1.98;1.40;;;27.30;29.50;;;;;;5113371;28;20070;-72
2022/07/17 10:45:12;;;;;;;1.92;1.40;;;27.30;28.80;;;;;;5113227;28;20073;-72
2022/07/17 10:47:50;;;;;;;1.88;1.42;;;27.30;29.00;;;;;;5111963;28;20472;-72
2022/07/17 10:50:18;;;;;;;2.63;1.73;;;27.40;28.60;;;;;;5117484;28;20023;-75
2022/07/17 10:52:55;;;;;;;2.35;1.40;;;27.40;28.30;;;;;;5117459;28;20019;-72
2022/07/17 10:55:22;;;;;;;1.35;1.23;;;27.40;28.50;;;;;;5117420;28;20036;-74
2022/07/17 10:57:48;;;;;;;1.52;1.40;;;27.50;28.60;;;;;;5117366;28;20027;-73
2022/07/17 11:00:16;;;;;;;1.10;1.00;;;27.50;28.40;;;;;;5108483;28;20035;-74
2022/07/17 11:02:42;;;;;;;1.77;1.27;;;27.50;28.00;;;;;;5096685;28;20019;-71
2022/07/17 11:05:13;;;;;;;3.97;1.52;;;27.60;28.80;;;;;;5096702;28;20061;-75
2022/07/17 11:08:00;;;;;;;1.50;0.95;;;27.60;28.40;;;;;;5096770;28;20020;-75
2022/07/17 11:10:27;;;;;;;5.72;1.48;;;27.60;28.50;;;;;;5096731;28;20419;-72
2022/07/17 11:12:55;;;;;;;5.55;2.35;;;27.60;28.30;;;;;;5096589;28;20136;-74
2022/07/17 11:15:22;;;;;;;3.13;1.70;;;27.60;28.20;;;;;;5096570;28;20138;-73
2022/07/17 11:17:49;;;;;;;2.22;1.70;;;27.70;28.30;;;;;;5096563;28;20099;-70
2022/07/17 11:20:16;;;;;;;6.72;2.55;;;27.70;28.40;;;;;;5094895;28;20516;-70
2022/07/17 11:22:42;;;;;;;2.55;1.65;;;27.70;28.30;;;;;;5096446;28;20024;-73
2022/07/17 11:25:11;;;;;;;2.10;1.77;;;27.80;26.80;;;;;;5095012;28;20031;-72
2022/07/17 11:27:38;;;;;;;2.53;1.80;;;27.80;26.40;;;;;;5096670;28;20373;-73
2022/07/17 11:30:05;;;;;;;3.58;1.65;;;27.80;27.30;;;;;;5095291;27;20052;-75
2022/07/17 11:32:36;;;;;;;2.92;2.33;;;27.80;26.90;;;;;;5094809;28;20051;-71
2022/07/17 11:35:23;;;;;;;23.80;1.80;;;27.80;26.90;;;;;;5094994;28;20476;-71
2022/07/17 11:37:50;;;;;;;3.08;1.80;;;27.80;26.50;;;;;;5095908;28;20405;-73
2022/07/17 11:40:16;;;;;;;2.28;1.52;;;27.90;27.10;;;;;;5094947;28;20465;-72
2022/07/17 11:42:42;;;;;;;3.55;1.77;;;27.90;26.50;;;;;;5096153;28;20492;-73
2022/07/17 11:45:09;;;;;;;2.50;1.70;;;27.90;26.40;;;;;;5094702;28;20078;-72
2022/07/17 11:47:36;;;;;;;5.20;1.77;;;27.90;26.50;;;;;;5096006;28;20027;-71
2022/07/17 11:50:13;;;;;;;7.93;2.40;;;28.00;26.90;;;;;;5094673;28;20036;-71
2022/07/17 11:52:44;;;;;;;1.73;1.52;;;28.00;26.90;;;;;;5095968;28;20465;-72
2022/07/17 11:55:10;;;;;;;1.63;1.50;;;28.00;26.90;;;;;;5095891;28;20024;-74
2022/07/17 11:57:47;;;;;;;5.38;2.13;;;28.00;26.90;;;;;;5095814;28;20024;-71
2022/07/17 12:00:16;;;;;;;2.55;1.52;;;28.10;27.00;;;;;;5094865;28;20055;-70
2022/07/17 12:02:41;;;;;;;1.55;1.05;;;28.10;26.80;;;;;;5095652;28;20164;-74
2022/07/17 12:05:08;;;;;;;2.22;1.85;;;28.10;26.30;;;;;;5095645;28;20451;-72
2022/07/17 12:07:45;;;;;;;3.75;1.40;;;28.10;26.00;;;;;;5094365;28;20416;-72
2022/07/17 12:10:22;;;;;;;2.08;1.38;;;28.10;25.30;;;;;;5095887;28;20370;-71
2022/07/17 12:13:04;;;;;;;3.38;1.55;;;28.10;25.40;;;;;;5095549;28;20020;-73
2022/07/17 12:15:40;;;;;;;2.63;1.33;;;28.20;25.30;;;;;;5095493;28;20016;-71
2022/07/17 12:18:09;;;;;;;2.30;1.25;;;28.20;25.10;;;;;;5095382;28;20035;-72
2022/07/17 12:20:47;;;;;;;1.50;1.33;;;28.20;24.70;;;;;;5095193;28;20136;-73
2022/07/17 12:23:29;;;;;;;14.95;1.65;;;28.30;23.90;;;;;;5095311;28;20016;-74
2022/07/17 12:26:05;;;;;;;3.60;1.63;;;28.30;24.50;;;;;;5095172;28;20081;-74
2022/07/17 12:28:31;;;;;;;2.05;1.38;;;28.30;24.30;;;;;;5095197;28;20107;-73
2022/07/17 12:30:57;;;;;;;1.70;1.17;;;28.30;23.20;;;;;;5095283;28;20056;-71
2022/07/17 12:33:23;;;;;;;1.88;1.33;;;28.40;23.00;;;;;;5093814;28;20050;-72
2022/07/17 12:35:49;;;;;;;1.48;1.38;;;28.40;22.90;;;;;;5095436;28;20476;-72
2022/07/17 12:38:14;;;;;;;4.20;1.40;;;28.40;23.10;;;;;;5095083;28;20050;-72
2022/07/17 12:40:41;;;;;;;1.45;1.30;;;28.40;22.10;;;;;;5095072;28;20101;-72
2022/07/17 12:43:08;;;;;;;1.45;1.05;;;28.40;21.80;;;;;;5095493;28;20024;-71
2022/07/17 12:45:34;;;;;;;2.38;1.23;;;28.50;21.20;;;;;;5093567;28;20028;-73
2022/07/17 12:48:00;;;;;;;1.45;1.15;;;28.50;20.20;;;;;;5105497;27;20024;-71